Time;durP1;ratioP1;P1;durP2;ratioP2;P2;SDS_P1;SDS_P2;PMS_P1;PMS_P2;Temp;Humidity;BMP_temperature;BMP_pressure;BME280_temperature;BME280_humidity;BME280_pressure;Samples;Min_cycle;Max_cycle;Signal;HPM_P1;HPM_P2
2020/12/19 00:01:59;;;;;;;19.10;13.20;;;6.70;95.90;;;;;;5046264;28;20040;-43
2020/12/19 00:04:24;;;;;;;17.92;12.77;;;6.70;95.90;;;;;;5051515;28;20136;-43
2020/12/19 00:06:50;;;;;;;18.05;12.20;;;6.70;96.00;;;;;;5053023;28;20111;-42
2020/12/19 00:09:15;;;;;;;18.85;13.15;;;6.70;96.00;;;;;;5052743;28;20049;-42
2020/12/19 00:11:42;;;;;;;17.42;13.18;;;6.70;96.00;;;;;;5052969;28;20029;-42
2020/12/19 00:14:07;;;;;;;20.00;13.90;;;6.70;96.00;;;;;;5053523;28;20071;-42
2020/12/19 00:16:33;;;;;;;18.40;13.73;;;6.70;96.00;;;;;;5052963;28;20052;-43
2020/12/19 00:18:59;;;;;;;20.42;14.23;;;6.70;96.00;;;;;;5052999;28;20200;-44
2020/12/19 00:21:32;;;;;;;18.65;13.88;;;6.70;96.00;;;;;;5053263;28;20033;-44
2020/12/19 00:23:57;;;;;;;18.60;13.20;;;6.70;96.10;;;;;;5052574;28;20048;-43
2020/12/19 00:26:33;;;;;;;21.20;15.07;;;6.70;96.00;;;;;;5053074;28;20518;-43
2020/12/19 00:28:59;;;;;;;22.30;14.70;;;6.70;96.10;;;;;;5052807;28;20067;-43
2020/12/19 00:31:24;;;;;;;19.40;14.35;;;6.60;96.10;;;;;;5052809;28;20025;-43
2020/12/19 00:33:50;;;;;;;19.40;15.10;;;6.70;96.10;;;;;;5052864;28;20032;-43
2020/12/19 00:36:15;;;;;;;19.52;15.18;;;6.60;96.10;;;;;;5052811;28;20473;-42
2020/12/19 00:38:41;;;;;;;22.73;15.25;;;6.60;96.10;;;;;;5052787;28;20037;-43
2020/12/19 00:41:06;;;;;;;23.02;14.40;;;6.60;96.20;;;;;;5052755;28;20029;-42
2020/12/19 00:43:32;;;;;;;18.88;14.20;;;6.60;96.20;;;;;;5052983;28;20070;-43
2020/12/19 00:45:57;;;;;;;19.85;15.43;;;6.60;96.20;;;;;;5052792;28;20037;-43
2020/12/19 00:48:23;;;;;;;20.92;15.02;;;6.60;96.20;;;;;;5052530;28;20033;-44
2020/12/19 00:50:48;;;;;;;19.27;14.35;;;6.60;96.20;;;;;;5052245;28;20100;-42
2020/12/19 00:53:13;;;;;;;19.05;13.90;;;6.60;96.20;;;;;;5052684;28;20464;-43
2020/12/19 00:55:39;;;;;;;22.65;16.65;;;6.60;96.20;;;;;;5052477;28;20037;-47
2020/12/19 00:58:04;;;;;;;20.52;15.52;;;6.60;96.30;;;;;;5052640;28;20033;-44
2020/12/19 01:00:30;;;;;;;21.67;15.57;;;6.60;96.30;;;;;;5053073;28;20147;-43
2020/12/19 01:02:56;;;;;;;20.00;14.38;;;6.60;96.30;;;;;;5052700;28;20033;-43
2020/12/19 01:05:21;;;;;;;21.45;16.42;;;6.60;96.30;;;;;;5051899;28;20045;-43
2020/12/19 01:07:47;;;;;;;26.40;17.90;;;6.60;96.30;;;;;;5052634;28;20599;-43
2020/12/19 01:10:12;;;;;;;21.15;15.35;;;6.60;96.30;;;;;;5049468;28;20044;-43
2020/12/19 01:12:38;;;;;;;21.17;15.85;;;6.60;96.30;;;;;;5052189;28;20020;-44
2020/12/19 01:15:05;;;;;;;21.42;15.75;;;6.50;96.30;;;;;;5051607;28;20449;-43
2020/12/19 01:17:31;;;;;;;18.58;13.95;;;6.50;96.30;;;;;;5049349;28;20836;-43
2020/12/19 01:19:58;;;;;;;21.35;15.30;;;6.50;96.30;;;;;;5048993;28;20029;-43
2020/12/19 01:22:24;;;;;;;20.80;14.27;;;6.50;96.30;;;;;;5049248;28;20017;-43
2020/12/19 01:24:49;;;;;;;22.98;15.43;;;6.50;96.30;;;;;;5049508;28;20029;-43
2020/12/19 01:27:15;;;;;;;21.38;15.48;;;6.50;96.40;;;;;;5048591;28;20571;-43
2020/12/19 01:29:40;;;;;;;22.65;16.60;;;6.40;96.40;;;;;;5049458;28;20083;-43
2020/12/19 01:32:06;;;;;;;23.42;16.80;;;6.50;96.40;;;;;;5049185;28;20056;-43
2020/12/19 01:34:32;;;;;;;22.52;16.35;;;6.40;96.40;;;;;;5048989;28;20033;-44
2020/12/19 01:36:58;;;;;;;25.23;17.63;;;6.40;96.40;;;;;;5049240;28;20029;-44
2020/12/19 01:39:23;;;;;;;23.90;16.80;;;6.40;96.40;;;;;;5048908;28;20538;-43
2020/12/19 01:41:51;;;;;;;23.85;17.00;;;6.40;96.40;;;;;;5048556;28;20116;-43
2020/12/19 01:44:16;;;;;;;24.75;17.20;;;6.40;96.40;;;;;;5049127;28;20036;-43
2020/12/19 01:47:00;;;;;;;21.70;16.10;;;6.40;96.40;;;;;;5048238;28;20033;-44
2020/12/19 01:49:30;;;;;;;22.33;15.50;;;6.40;96.50;;;;;;5048432;28;20095;-43
2020/12/19 01:52:01;;;;;;;20.33;15.48;;;6.40;96.40;;;;;;5048562;28;20021;-43
2020/12/19 01:54:28;;;;;;;22.92;16.20;;;6.40;96.50;;;;;;5048597;28;20028;-42
2020/12/19 01:56:59;;;;;;;20.63;15.57;;;6.40;96.50;;;;;;5048616;28;20078;-43
2020/12/19 01:59:27;;;;;;;21.05;15.52;;;6.30;96.50;;;;;;5048686;28;20391;-43
2020/12/19 02:01:55;;;;;;;22.63;17.00;;;6.30;96.50;;;;;;5048027;28;20469;-42
2020/12/19 02:04:25;;;;;;;23.40;15.90;;;6.30;96.50;;;;;;5048317;28;20055;-43
2020/12/19 02:06:53;;;;;;;20.42;14.82;;;6.30;96.50;;;;;;5048407;28;20368;-42
2020/12/19 02:09:28;;;;;;;22.45;16.05;;;6.30;96.50;;;;;;5048199;28;20083;-42
2020/12/19 02:11:54;;;;;;;20.90;15.15;;;6.30;96.50;;;;;;5048327;28;20453;-44
2020/12/19 02:14:19;;;;;;;25.13;18.00;;;6.30;96.50;;;;;;5048197;28;20074;-44
2020/12/19 02:17:00;;;;;;;25.85;17.85;;;6.30;96.60;;;;;;5048296;28;20028;-43
2020/12/19 02:19:26;;;;;;;26.08;17.92;;;6.30;96.60;;;;;;5048618;28;20164;-42
2020/12/19 02:21:53;;;;;;;25.27;16.83;;;6.20;96.60;;;;;;5047710;28;20064;-43
2020/12/19 02:24:19;;;;;;;27.63;18.60;;;6.30;96.70;;;;;;5048546;28;20058;-43
2020/12/19 02:26:48;;;;;;;26.30;19.13;;;6.30;96.70;;;;;;5047510;28;20050;-43
2020/12/19 02:29:15;;;;;;;26.58;19.48;;;6.30;96.70;;;;;;5047460;28;20119;-43
2020/12/19 02:31:41;;;;;;;27.88;18.45;;;6.30;96.70;;;;;;5048107;28;20053;-43
2020/12/19 02:34:07;;;;;;;29.88;19.05;;;6.30;96.70;;;;;;5048201;28;20021;-43
2020/12/19 02:36:33;;;;;;;29.58;20.15;;;6.30;96.80;;;;;;5047950;28;20036;-48
2020/12/19 02:38:58;;;;;;;24.73;18.60;;;6.30;96.80;;;;;;5047633;28;20048;-43
2020/12/19 02:41:24;;;;;;;27.63;19.67;;;6.30;96.80;;;;;;5047888;28;20025;-43
2020/12/19 02:43:54;;;;;;;27.42;18.58;;;6.30;96.80;;;;;;5047435;28;20099;-43
2020/12/19 02:46:19;;;;;;;24.13;18.65;;;6.30;96.90;;;;;;5048099;28;20032;-43
2020/12/19 02:48:51;;;;;;;27.55;18.50;;;6.20;96.80;;;;;;5047687;28;20037;-43
2020/12/19 02:51:17;;;;;;;23.00;17.73;;;6.20;96.80;;;;;;5047145;28;20428;-42
2020/12/19 02:53:43;;;;;;;27.38;19.20;;;6.20;96.80;;;;;;5047742;28;20060;-43
2020/12/19 02:56:08;;;;;;;27.23;18.45;;;6.20;96.90;;;;;;5047821;28;20443;-43
2020/12/19 03:01:37;;;;;;;29.30;19.08;;;6.20;96.90;;;;;;5047772;28;20036;-43
2020/12/19 03:04:03;;;;;;;27.85;19.67;;;6.20;96.90;;;;;;5046736;28;20061;-43
2020/12/19 03:06:28;;;;;;;29.02;19.02;;;6.20;96.90;;;;;;5047129;28;20025;-43
2020/12/19 03:08:54;;;;;;;27.05;19.95;;;6.20;96.90;;;;;;5047322;28;20056;-44
2020/12/19 03:11:19;;;;;;;33.25;20.38;;;6.20;97.00;;;;;;5047214;28;20056;-43
2020/12/19 03:13:45;;;;;;;28.55;18.27;;;6.20;97.00;;;;;;5047595;28;20086;-44
2020/12/19 03:16:11;;;;;;;30.02;20.08;;;6.20;97.00;;;;;;5047032;28;20075;-44
2020/12/19 03:18:36;;;;;;;29.60;19.80;;;6.10;97.00;;;;;;5047346;28;20033;-43
2020/12/19 03:21:02;;;;;;;27.95;19.08;;;6.20;97.10;;;;;;5046950;28;20649;-43
2020/12/19 03:23:27;;;;;;;28.23;19.63;;;6.20;97.10;;;;;;5047473;28;20554;-42
2020/12/19 03:25:53;;;;;;;32.25;21.13;;;6.20;97.10;;;;;;5046526;28;20100;-45
2020/12/19 03:28:19;;;;;;;29.00;20.73;;;6.20;97.10;;;;;;5047009;28;20068;-44
2020/12/19 03:30:44;;;;;;;29.27;20.30;;;6.20;97.10;;;;;;5046978;28;20017;-44
2020/12/19 03:33:10;;;;;;;30.20;20.63;;;6.20;97.20;;;;;;5046700;28;20051;-43
2020/12/19 03:35:38;;;;;;;31.42;21.10;;;6.20;97.20;;;;;;5047018;28;20035;-44
2020/12/19 03:38:03;;;;;;;33.45;20.73;;;6.20;97.20;;;;;;5045871;28;20033;-44
2020/12/19 03:40:29;;;;;;;32.08;20.67;;;6.20;97.20;;;;;;5046593;28;20017;-42
2020/12/19 03:42:55;;;;;;;34.38;22.02;;;6.20;97.20;;;;;;5046639;28;20555;-43
2020/12/19 03:45:20;;;;;;;28.05;20.60;;;6.20;97.20;;;;;;5047172;28;20028;-43
2020/12/19 03:47:46;;;;;;;31.77;21.52;;;6.20;97.20;;;;;;5046181;28;20480;-43
2020/12/19 03:50:11;;;;;;;30.52;20.48;;;6.20;97.30;;;;;;5046565;28;20013;-42
2020/12/19 03:52:37;;;;;;;33.60;21.08;;;6.20;97.30;;;;;;5047133;28;20039;-43
2020/12/19 03:55:04;;;;;;;33.10;21.65;;;6.20;97.30;;;;;;5046277;28;20025;-43
2020/12/19 03:57:29;;;;;;;31.67;22.02;;;6.20;97.30;;;;;;5046532;28;20510;-43
2020/12/19 03:59:55;;;;;;;30.30;21.92;;;6.20;97.40;;;;;;5046628;28;20032;-44
2020/12/19 04:02:20;;;;;;;41.28;23.38;;;6.20;97.40;;;;;;5046167;28;20021;-43
2020/12/19 04:04:49;;;;;;;32.45;22.20;;;6.20;97.40;;;;;;5046135;28;20075;-44
2020/12/19 04:07:15;;;;;;;30.27;20.40;;;6.20;97.40;;;;;;5046231;28;20052;-43
2020/12/19 04:09:40;;;;;;;30.23;21.63;;;6.20;97.40;;;;;;5046882;28;20676;-43
2020/12/19 04:12:06;;;;;;;33.78;21.20;;;6.20;97.40;;;;;;5046626;28;20678;-43
2020/12/19 04:14:39;;;;;;;33.30;21.65;;;6.20;97.40;;;;;;5046329;28;20570;-42
2020/12/19 04:17:07;;;;;;;32.03;21.55;;;6.20;97.40;;;;;;5047097;28;20017;-44
2020/12/19 04:19:32;;;;;;;31.67;22.40;;;6.20;97.40;;;;;;5046636;28;20032;-43
2020/12/19 04:21:58;;;;;;;33.25;21.42;;;6.20;97.40;;;;;;5046241;28;20696;-43
2020/12/19 04:24:24;;;;;;;33.42;21.48;;;6.20;97.40;;;;;;5046512;28;20096;-43
2020/12/19 04:26:49;;;;;;;34.50;21.65;;;6.30;97.40;;;;;;5046469;28;20037;-43
2020/12/19 04:29:15;;;;;;;33.72;20.60;;;6.30;97.40;;;;;;5045846;28;20033;-44
2020/12/19 04:31:40;;;;;;;32.13;21.00;;;6.20;97.40;;;;;;5046130;28;20395;-42
2020/12/19 04:34:06;;;;;;;31.02;21.27;;;6.20;97.40;;;;;;5046417;28;20116;-42
2020/12/19 04:36:31;;;;;;;31.15;20.05;;;6.20;97.40;;;;;;5045693;28;20033;-43
2020/12/19 04:38:57;;;;;;;28.17;19.63;;;6.20;97.40;;;;;;5046183;28;20913;-42
2020/12/19 04:41:23;;;;;;;31.33;20.58;;;6.20;97.40;;;;;;5046619;28;20060;-43
2020/12/19 04:43:49;;;;;;;31.83;21.77;;;6.20;97.40;;;;;;5045883;28;20025;-43
2020/12/19 04:46:16;;;;;;;28.40;19.85;;;6.20;97.40;;;;;;5046377;28;20118;-43
2020/12/19 04:48:43;;;;;;;27.75;19.90;;;6.20;97.40;;;;;;5045989;28;20069;-43
2020/12/19 04:51:08;;;;;;;32.05;21.92;;;6.20;97.40;;;;;;5049601;28;20055;-44
2020/12/19 04:53:34;;;;;;;35.45;21.92;;;6.20;97.40;;;;;;5050179;28;20056;-43
2020/12/19 04:56:01;;;;;;;29.73;20.63;;;6.20;97.50;;;;;;5049904;28;20021;-43
2020/12/19 04:58:26;;;;;;;33.70;21.45;;;6.20;97.50;;;;;;5049587;28;20076;-43
2020/12/19 05:00:52;;;;;;;29.30;20.27;;;6.30;97.50;;;;;;5049707;28;20043;-43
2020/12/19 05:03:17;;;;;;;31.27;20.50;;;6.30;97.60;;;;;;5049593;28;20115;-42
2020/12/19 05:05:45;;;;;;;30.90;19.98;;;6.30;97.50;;;;;;5049287;28;20512;-42
2020/12/19 05:08:11;;;;;;;32.22;19.30;;;6.20;97.50;;;;;;5049878;28;20029;-44
2020/12/19 05:10:38;;;;;;;27.30;18.75;;;6.30;97.50;;;;;;5049478;28;20055;-43
2020/12/19 05:13:05;;;;;;;27.77;20.10;;;6.30;97.50;;;;;;5049749;28;20500;-43
2020/12/19 05:15:31;;;;;;;30.30;19.83;;;6.30;97.50;;;;;;5049788;28;20499;-42
2020/12/19 05:17:58;;;;;;;32.08;20.15;;;6.30;97.60;;;;;;5049058;28;20427;-43
2020/12/19 05:20:26;;;;;;;28.60;19.73;;;6.30;97.80;;;;;;5049930;28;20016;-43
2020/12/19 05:22:52;;;;;;;27.98;19.08;;;6.30;97.60;;;;;;5049748;28;20031;-43
2020/12/19 05:25:20;;;;;;;27.27;19.30;;;6.30;97.50;;;;;;5048859;28;20463;-43
2020/12/19 05:27:47;;;;;;;29.63;18.77;;;6.30;97.50;;;;;;5049586;28;20051;-43
2020/12/19 05:30:13;;;;;;;27.20;18.35;;;6.30;97.50;;;;;;5049232;28;20767;-43
2020/12/19 05:32:47;;;;;;;27.55;18.48;;;6.30;97.50;;;;;;5048936;28;20029;-42
2020/12/19 05:35:14;;;;;;;29.60;20.15;;;6.30;97.50;;;;;;5049667;28;20116;-43
2020/12/19 05:37:40;;;;;;;28.85;19.63;;;6.30;97.50;;;;;;5049139;28;20100;-43
2020/12/19 05:40:11;;;;;;;30.63;19.20;;;6.30;97.50;;;;;;5048937;28;20123;-42
2020/12/19 05:42:38;;;;;;;27.67;19.60;;;6.30;97.50;;;;;;5050028;28;20021;-44
2020/12/19 05:45:15;;;;;;;27.27;18.42;;;6.20;97.40;;;;;;5049183;28;20652;-43
2020/12/19 05:47:41;;;;;;;26.05;17.73;;;6.30;97.50;;;;;;5048188;28;20566;-43
2020/12/19 05:50:07;;;;;;;33.33;19.30;;;6.20;97.40;;;;;;5049335;28;20032;-43
2020/12/19 05:52:32;;;;;;;29.33;19.75;;;6.20;97.40;;;;;;5049381;28;20396;-43
2020/12/19 05:55:02;;;;;;;28.77;19.10;;;6.20;97.50;;;;;;5048632;28;20491;-43
2020/12/19 05:57:30;;;;;;;28.65;19.55;;;6.30;97.50;;;;;;5048962;28;20137;-43
2020/12/19 05:59:57;;;;;;;29.35;20.10;;;6.20;97.50;;;;;;5049094;28;20033;-43
2020/12/19 06:02:23;;;;;;;30.60;20.33;;;6.20;97.40;;;;;;5048113;28;20025;-43
2020/12/19 06:04:51;;;;;;;28.73;19.20;;;6.20;97.40;;;;;;5048945;28;20063;-43
2020/12/19 06:07:17;;;;;;;30.48;20.42;;;6.20;97.50;;;;;;5048714;28;20052;-43
2020/12/19 06:09:43;;;;;;;31.00;20.42;;;6.20;97.50;;;;;;5048717;28;20469;-43
2020/12/19 06:12:13;;;;;;;31.02;19.65;;;6.20;97.50;;;;;;5048882;28;20053;-43
2020/12/19 06:14:48;;;;;;;30.45;20.70;;;6.20;97.50;;;;;;5048797;28;20055;-42
2020/12/19 06:17:26;;;;;;;30.77;19.80;;;6.30;97.60;;;;;;5048759;28;20032;-43
2020/12/19 06:19:52;;;;;;;28.48;18.73;;;6.20;97.50;;;;;;5048586;28;20243;-44
2020/12/19 06:22:26;;;;;;;30.65;20.08;;;6.20;97.50;;;;;;5048366;28;20106;-44
2020/12/19 06:24:52;;;;;;;29.40;20.30;;;6.20;97.40;;;;;;5048362;28;20118;-43
2020/12/19 06:27:17;;;;;;;28.02;19.27;;;6.20;97.40;;;;;;5048769;28;20029;-44
2020/12/19 06:29:43;;;;;;;29.90;19.00;;;6.20;97.40;;;;;;5048247;28;20198;-42
2020/12/19 06:32:20;;;;;;;27.02;18.27;;;6.20;97.40;;;;;;5048280;28;20473;-43
2020/12/19 06:35:00;;;;;;;31.00;18.83;;;6.20;97.40;;;;;;5048468;28;20036;-43
2020/12/19 06:37:28;;;;;;;28.02;19.23;;;6.20;97.40;;;;;;5048353;28;20285;-43
2020/12/19 06:40:14;;;;;;;28.67;18.60;;;6.20;97.40;;;;;;5048703;28;20025;-43
2020/12/19 06:42:41;;;;;;;25.27;17.27;;;6.20;97.40;;;;;;5047912;28;20025;-43
2020/12/19 06:45:23;;;;;;;25.48;17.50;;;6.20;97.40;;;;;;5048007;28;20029;-42
2020/12/19 06:47:49;;;;;;;27.83;18.38;;;6.20;97.40;;;;;;5048259;28;20125;-43
2020/12/19 06:50:15;;;;;;;30.08;18.63;;;6.10;97.40;;;;;;5047949;28;20055;-43
2020/12/19 06:53:00;;;;;;;25.27;17.65;;;6.10;97.40;;;;;;5048136;28;20127;-43
2020/12/19 06:55:27;;;;;;;23.38;17.48;;;6.10;97.40;;;;;;5048066;28;20029;-43
2020/12/19 06:57:55;;;;;;;26.23;17.50;;;6.10;97.40;;;;;;5047639;28;20032;-44
2020/12/19 07:00:25;;;;;;;25.08;17.83;;;6.10;97.40;;;;;;5048013;28;20017;-44
2020/12/19 07:02:55;;;;;;;25.17;17.85;;;6.10;97.40;;;;;;5048008;28;20029;-44
2020/12/19 07:05:32;;;;;;;24.98;18.20;;;6.10;97.40;;;;;;5047779;28;20053;-42
2020/12/19 07:08:17;;;;;;;26.92;16.75;;;6.10;97.40;;;;;;5048051;28;20477;-43
2020/12/19 07:10:42;;;;;;;24.08;16.38;;;6.20;97.40;;;;;;5047698;28;20033;-43
2020/12/19 07:13:08;;;;;;;23.17;15.00;;;6.20;97.40;;;;;;5047702;28;20039;-43
2020/12/19 07:15:44;;;;;;;21.00;14.98;;;6.10;97.40;;;;;;5048150;28;20029;-43
2020/12/19 07:18:29;;;;;;;21.65;14.93;;;6.20;97.40;;;;;;5047452;28;20064;-42
2020/12/19 07:21:01;;;;;;;22.83;17.23;;;6.20;97.40;;;;;;5047719;28;20035;-43
2020/12/19 07:23:31;;;;;;;22.30;16.48;;;6.20;97.40;;;;;;5047824;28;20028;-44
2020/12/19 07:25:56;;;;;;;29.27;18.15;;;6.20;97.40;;;;;;5047364;28;20029;-43
2020/12/19 07:28:22;;;;;;;26.02;17.65;;;6.10;97.30;;;;;;5047357;28;20404;-42
2020/12/19 07:30:48;;;;;;;24.40;16.50;;;6.20;97.30;;;;;;5047817;28;20051;-43
2020/12/19 07:33:13;;;;;;;24.95;17.33;;;6.20;97.60;;;;;;5046887;28;20106;-43
2020/12/19 07:35:39;;;;;;;26.92;17.38;;;6.20;97.40;;;;;;5047384;28;20241;-44
2020/12/19 07:38:05;;;;;;;27.55;17.45;;;6.20;97.40;;;;;;5047371;28;20025;-43
2020/12/19 07:40:31;;;;;;;26.27;18.13;;;6.20;97.30;;;;;;5046769;28;20013;-43
2020/12/19 07:43:01;;;;;;;23.92;16.88;;;6.20;97.30;;;;;;5046131;28;20021;-43
2020/12/19 07:45:27;;;;;;;25.92;18.90;;;6.20;97.30;;;;;;5044837;28;20549;-43
2020/12/19 07:47:53;;;;;;;27.25;17.25;;;6.30;97.30;;;;;;5046224;28;20029;-43
2020/12/19 07:50:29;;;;;;;22.23;15.40;;;6.30;97.30;;;;;;5046608;28;20021;-43
2020/12/19 07:53:02;;;;;;;24.75;17.67;;;6.20;97.30;;;;;;5046262;28;20029;-43
2020/12/19 07:55:28;;;;;;;25.20;18.15;;;6.30;97.30;;;;;;5046489;28;20112;-42
2020/12/19 07:57:54;;;;;;;24.50;16.75;;;6.30;97.30;;;;;;5046683;28;20154;-43
2020/12/19 08:00:23;;;;;;;24.27;16.88;;;6.30;97.30;;;;;;5045587;28;20476;-43
2020/12/19 08:02:50;;;;;;;22.02;16.30;;;6.30;97.30;;;;;;5046449;28;20480;-43
2020/12/19 08:05:15;;;;;;;23.23;16.80;;;6.30;97.30;;;;;;5045869;28;20506;-44
2020/12/19 08:07:41;;;;;;;26.17;18.30;;;6.30;97.20;;;;;;5046125;28;20033;-44
2020/12/19 08:10:12;;;;;;;24.08;16.90;;;6.30;97.30;;;;;;5046485;28;20040;-43
2020/12/19 08:12:42;;;;;;;24.73;17.67;;;6.30;97.20;;;;;;5047072;28;20119;-43
2020/12/19 08:15:11;;;;;;;26.67;17.48;;;6.30;97.20;;;;;;5045729;28;20029;-42
2020/12/19 08:17:46;;;;;;;24.35;18.50;;;6.30;97.20;;;;;;5047108;28;20021;-43
2020/12/19 08:20:12;;;;;;;25.10;17.48;;;6.30;97.20;;;;;;5046200;28;20036;-42
2020/12/19 08:22:40;;;;;;;27.02;17.17;;;6.30;97.20;;;;;;5046233;28;20021;-43
2020/12/19 08:25:06;;;;;;;26.98;17.42;;;6.30;97.20;;;;;;5047892;28;20037;-43
2020/12/19 08:27:46;;;;;;;24.33;17.25;;;6.40;97.30;;;;;;5050386;28;20029;-43
2020/12/19 08:30:20;;;;;;;24.30;17.17;;;6.40;97.30;;;;;;5050108;28;20029;-42
2020/12/19 08:32:49;;;;;;;26.50;17.60;;;6.40;97.30;;;;;;5050263;28;20060;-43
2020/12/19 08:35:28;;;;;;;23.90;17.58;;;6.40;97.40;;;;;;5049463;28;20048;-43
2020/12/19 08:38:24;;;;;;;27.73;18.77;;;6.40;97.40;;;;;;5050500;28;20029;-43
2020/12/19 08:40:52;;;;;;;22.45;16.27;;;6.40;97.40;;;;;;5048653;28;20128;-44
2020/12/19 08:43:19;;;;;;;24.88;17.55;;;6.50;97.50;;;;;;5050308;28;20102;-43
2020/12/19 08:45:46;;;;;;;21.77;15.70;;;6.50;97.50;;;;;;5050857;28;20044;-43
2020/12/19 08:48:22;;;;;;;21.85;15.88;;;6.50;97.50;;;;;;5050347;28;20036;-43
2020/12/19 08:50:49;;;;;;;20.67;15.98;;;6.60;97.50;;;;;;5050012;28;20738;-43
2020/12/19 08:53:21;;;;;;;19.55;14.93;;;6.60;97.50;;;;;;5050464;28;20568;-43
2020/12/19 08:55:48;;;;;;;20.90;15.50;;;6.60;97.50;;;;;;5049943;28;20036;-43
2020/12/19 08:58:26;;;;;;;17.95;13.77;;;6.70;97.50;;;;;;5050578;28;20033;-43
2020/12/19 09:00:54;;;;;;;16.38;12.05;;;6.80;97.50;;;;;;5050344;28;20568;-43
2020/12/19 09:03:29;;;;;;;17.23;12.65;;;6.80;97.50;;;;;;5049923;28;20036;-43
2020/12/19 09:06:06;;;;;;;16.23;11.65;;;6.80;97.80;;;;;;5049932;28;20102;-43
2020/12/19 09:08:49;;;;;;;18.92;12.30;;;6.90;97.50;;;;;;5050237;28;20100;-43
2020/12/19 09:11:24;;;;;;;17.65;12.35;;;6.90;97.50;;;;;;5049613;28;20473;-43
2020/12/19 09:13:49;;;;;;;17.38;12.73;;;7.00;97.50;;;;;;5054144;28;20611;-44
2020/12/19 09:16:15;;;;;;;19.50;12.77;;;7.10;97.50;;;;;;5058766;28;20111;-43
2020/12/19 09:18:41;;;;;;;16.60;12.68;;;7.10;97.50;;;;;;5066463;28;20027;-43
2020/12/19 09:21:09;;;;;;;17.98;13.18;;;7.10;97.40;;;;;;5064596;28;20021;-43
2020/12/19 09:23:38;;;;;;;19.20;12.88;;;7.20;97.40;;;;;;5053725;28;20040;-43
2020/12/19 09:26:05;;;;;;;16.25;11.85;;;7.30;97.40;;;;;;5057148;28;20032;-43
2020/12/19 09:28:32;;;;;;;18.17;12.35;;;7.30;97.40;;;;;;5058884;28;20037;-44
2020/12/19 09:30:58;;;;;;;15.40;11.27;;;7.40;97.30;;;;;;5049507;28;20331;-44
2020/12/19 09:33:26;;;;;;;18.00;11.60;;;7.40;97.30;;;;;;5049181;28;20025;-43
2020/12/19 09:35:53;;;;;;;16.63;12.07;;;7.50;97.30;;;;;;5048276;28;20025;-44
2020/12/19 09:38:19;;;;;;;18.25;13.32;;;7.50;97.30;;;;;;5048477;28;20496;-43
2020/12/19 09:40:44;;;;;;;18.05;13.48;;;7.60;97.30;;;;;;5049313;28;20032;-44
2020/12/19 09:43:10;;;;;;;18.25;13.27;;;7.70;97.30;;;;;;5049438;28;20033;-42
2020/12/19 09:45:37;;;;;;;19.20;13.52;;;7.70;97.30;;;;;;5048668;28;20021;-43
2020/12/19 09:48:03;;;;;;;18.90;12.88;;;7.80;97.30;;;;;;5046554;28;20032;-43
2020/12/19 09:50:29;;;;;;;17.05;12.43;;;7.90;97.30;;;;;;5054576;28;20025;-43
2020/12/19 09:52:54;;;;;;;17.63;12.85;;;8.00;97.20;;;;;;5049153;28;20109;-44
2020/12/19 09:55:24;;;;;;;17.50;12.55;;;8.00;97.20;;;;;;5049429;28;20025;-43
2020/12/19 09:57:52;;;;;;;18.05;13.98;;;8.10;97.10;;;;;;5051026;28;20047;-43
2020/12/19 10:00:18;;;;;;;17.38;12.40;;;8.20;97.10;;;;;;5047921;28;20477;-43
2020/12/19 10:02:46;;;;;;;19.25;13.90;;;8.20;97.10;;;;;;5048935;28;20017;-43
2020/12/19 10:05:12;;;;;;;19.45;13.25;;;8.30;97.10;;;;;;5049222;28;20447;-44
2020/12/19 10:07:38;;;;;;;18.52;14.05;;;8.40;97.10;;;;;;5048891;28;20029;-43
2020/12/19 10:10:05;;;;;;;17.85;12.85;;;8.40;97.10;;;;;;5058221;28;20024;-42
2020/12/19 10:12:31;;;;;;;16.58;12.45;;;8.50;97.10;;;;;;5069840;28;20102;-43
2020/12/19 10:14:56;;;;;;;15.95;12.00;;;8.50;97.00;;;;;;5068508;28;20024;-44
2020/12/19 10:17:22;;;;;;;16.13;12.15;;;8.60;96.90;;;;;;5068780;28;20143;-43
2020/12/19 10:19:47;;;;;;;15.43;12.05;;;8.70;96.80;;;;;;5068946;28;20025;-44
2020/12/19 10:22:13;;;;;;;16.38;12.63;;;8.80;96.80;;;;;;5068045;28;20028;-43
2020/12/19 10:24:38;;;;;;;18.30;12.90;;;8.80;96.70;;;;;;5068823;28;20053;-43
2020/12/19 10:27:04;;;;;;;14.70;13.00;;;8.90;96.70;;;;;;5069030;28;20066;-44
2020/12/19 10:29:29;;;;;;;18.25;11.98;;;8.90;96.60;;;;;;5068600;28;20033;-44
2020/12/19 10:31:55;;;;;;;16.02;12.07;;;9.00;96.60;;;;;;5068544;28;20055;-44
2020/12/19 10:34:21;;;;;;;16.45;11.60;;;9.00;96.50;;;;;;5068190;28;20059;-44
2020/12/19 10:36:52;;;;;;;17.45;11.80;;;9.10;96.30;;;;;;5068770;28;20400;-43
2020/12/19 10:39:18;;;;;;;14.93;11.35;;;9.20;96.30;;;;;;5068574;28;20021;-43
2020/12/19 10:41:47;;;;;;;16.05;10.98;;;9.30;96.30;;;;;;5064405;28;20013;-43
2020/12/19 10:44:13;;;;;;;13.32;10.57;;;9.30;96.20;;;;;;5068310;28;20025;-44
2020/12/19 10:46:38;;;;;;;14.52;11.07;;;9.40;96.10;;;;;;5061363;28;20021;-44
2020/12/19 10:49:04;;;;;;;17.50;11.48;;;9.50;96.00;;;;;;5048008;28;20382;-44
2020/12/19 10:51:29;;;;;;;16.20;11.65;;;9.50;95.80;;;;;;5047918;28;20436;-44
2020/12/19 10:53:56;;;;;;;15.05;12.07;;;9.50;95.80;;;;;;5048388;28;20082;-43
2020/12/19 10:56:22;;;;;;;14.77;11.20;;;9.60;95.60;;;;;;5048045;28;20108;-43
2020/12/19 10:58:48;;;;;;;16.05;11.80;;;9.70;95.50;;;;;;5048237;28;20111;-42
2020/12/19 11:01:14;;;;;;;15.73;10.55;;;9.70;95.60;;;;;;5047973;28;20392;-43
2020/12/19 11:03:42;;;;;;;16.05;11.18;;;9.70;95.50;;;;;;5047623;28;20519;-43
2020/12/19 11:06:08;;;;;;;13.73;10.98;;;9.80;95.50;;;;;;5048059;28;20057;-44
2020/12/19 11:08:34;;;;;;;13.93;10.57;;;9.80;95.50;;;;;;5048296;28;20416;-43
2020/12/19 11:10:59;;;;;;;12.77;10.15;;;9.90;95.50;;;;;;5047624;28;20021;-44
2020/12/19 11:13:25;;;;;;;13.18;10.48;;;9.90;95.50;;;;;;5048073;28;20079;-44
2020/12/19 11:15:50;;;;;;;12.55;9.70;;;9.90;95.40;;;;;;5047638;28;20037;-44
2020/12/19 11:18:16;;;;;;;14.70;11.57;;;9.90;95.40;;;;;;5052305;28;20039;-43
2020/12/19 11:20:42;;;;;;;14.70;10.02;;;9.90;95.30;;;;;;5047832;28;20029;-43
2020/12/19 11:23:07;;;;;;;12.90;9.55;;;10.00;95.10;;;;;;5048358;28;20112;-42
2020/12/19 11:25:32;;;;;;;13.60;9.13;;;10.10;95.10;;;;;;5047651;28;20039;-42
2020/12/19 11:27:58;;;;;;;12.93;9.70;;;10.10;95.10;;;;;;5047642;28;20432;-43
2020/12/19 11:30:23;;;;;;;12.23;9.95;;;10.20;94.90;;;;;;5047504;28;20033;-44
2020/12/19 11:32:49;;;;;;;11.55;9.48;;;10.30;94.80;;;;;;5047605;28;20051;-43
2020/12/19 11:35:15;;;;;;;13.75;9.90;;;10.40;94.70;;;;;;5047166;28;20387;-44
2020/12/19 11:37:40;;;;;;;11.05;8.55;;;10.40;94.80;;;;;;5047061;28;20025;-43
2020/12/19 11:40:06;;;;;;;9.27;7.70;;;10.50;94.60;;;;;;5047578;28;20535;-43
2020/12/19 11:42:31;;;;;;;12.60;9.18;;;10.60;94.70;;;;;;5047823;28;20021;-43
2020/12/19 11:44:57;;;;;;;10.50;8.05;;;10.70;94.60;;;;;;5052783;28;20033;-43
2020/12/19 11:47:23;;;;;;;13.57;10.00;;;10.70;94.50;;;;;;5046555;28;20484;-43
2020/12/19 11:49:48;;;;;;;11.48;9.55;;;10.70;94.10;;;;;;5046463;28;20136;-44
2020/12/19 11:52:14;;;;;;;11.45;8.80;;;10.70;94.10;;;;;;5045907;28;20460;-43
2020/12/19 11:54:39;;;;;;;10.60;8.88;;;10.90;94.10;;;;;;5046387;28;20044;-44
2020/12/19 11:57:06;;;;;;;11.13;8.85;;;10.90;94.00;;;;;;5047104;28;20067;-44
2020/12/19 11:59:31;;;;;;;14.63;9.65;;;10.90;93.80;;;;;;5065406;28;20032;-43
2020/12/19 12:02:03;;;;;;;11.95;8.73;;;11.00;93.60;;;;;;5066309;28;20140;-43
2020/12/19 12:04:30;;;;;;;10.83;8.30;;;11.00;93.90;;;;;;5066117;28;20442;-43
2020/12/19 12:06:55;;;;;;;10.77;8.32;;;11.10;93.70;;;;;;5065683;28;20032;-43
2020/12/19 12:09:21;;;;;;;10.07;7.85;;;11.10;93.80;;;;;;5066502;28;20036;-42
2020/12/19 12:11:46;;;;;;;10.32;8.27;;;11.20;93.60;;;;;;5063310;28;20417;-43
2020/12/19 12:14:12;;;;;;;9.73;7.18;;;11.30;93.40;;;;;;5043190;28;20373;-44
2020/12/19 12:16:37;;;;;;;11.90;8.70;;;11.40;93.40;;;;;;5044525;28;20051;-44
2020/12/19 12:19:03;;;;;;;10.82;8.45;;;11.40;93.20;;;;;;5044096;28;20583;-44
2020/12/19 12:21:39;;;;;;;11.00;7.05;;;11.50;93.10;;;;;;5044016;28;20029;-44
2020/12/19 12:24:06;;;;;;;8.88;7.13;;;11.50;93.10;;;;;;5044529;28;20052;-43
2020/12/19 12:26:32;;;;;;;10.27;8.30;;;11.40;93.00;;;;;;5042995;28;20559;-43
2020/12/19 12:28:58;;;;;;;10.70;7.55;;;11.40;92.80;;;;;;5043431;28;20079;-43
2020/12/19 12:31:26;;;;;;;9.95;7.65;;;11.40;93.10;;;;;;5044418;28;20029;-44
2020/12/19 12:33:52;;;;;;;9.02;7.32;;;11.40;93.10;;;;;;5044098;28;20020;-43
2020/12/19 12:36:19;;;;;;;9.27;7.38;;;11.40;93.10;;;;;;5044269;28;20051;-42
2020/12/19 12:38:44;;;;;;;10.95;8.57;;;11.40;93.20;;;;;;5044089;28;20028;-42
2020/12/19 12:41:10;;;;;;;9.73;7.82;;;11.40;93.20;;;;;;5042895;28;20029;-44
2020/12/19 12:43:36;;;;;;;11.88;7.93;;;11.40;93.20;;;;;;5044251;28;20592;-43